sensor_id;sensor_type;location;lat;lon;timestamp;temperature;humidity
17827;DHT22;9038;48.208;16.308;2023-06-14T00:00:20;17.50;78.50
17827;DHT22;9038;48.208;16.308;2023-06-14T00:02:22;17.50;78.90
17827;DHT22;9038;48.208;16.308;2023-06-14T00:04:24;17.50;78.80
17827;DHT22;9038;48.208;16.308;2023-06-14T00:06:28;17.50;78.70
17827;DHT22;9038;48.208;16.308;2023-06-14T00:08:30;17.40;78.50
17827;DHT22;9038;48.208;16.308;2023-06-14T00:10:33;17.40;78.90
17827;DHT22;9038;48.208;16.308;2023-06-14T00:12:36;17.40;79.70
17827;DHT22;9038;48.208;16.308;2023-06-14T00:14:38;17.30;80.00
17827;DHT22;9038;48.208;16.308;2023-06-14T00:16:40;17.30;80.20
17827;DHT22;9038;48.208;16.308;2023-06-14T00:18:45;17.30;80.40
17827;DHT22;9038;48.208;16.308;2023-06-14T00:20:47;17.20;80.30
17827;DHT22;9038;48.208;16.308;2023-06-14T00:22:49;17.30;81.10
17827;DHT22;9038;48.208;16.308;2023-06-14T00:24:52;17.20;80.50
17827;DHT22;9038;48.208;16.308;2023-06-14T00:26:55;17.10;81.20
17827;DHT22;9038;48.208;16.308;2023-06-14T00:28:57;17.10;82.50
17827;DHT22;9038;48.208;16.308;2023-06-14T00:30:59;17.10;81.50
17827;DHT22;9038;48.208;16.308;2023-06-14T00:33:01;17.10;83.00
17827;DHT22;9038;48.208;16.308;2023-06-14T00:35:03;17.10;82.10
17827;DHT22;9038;48.208;16.308;2023-06-14T00:37:05;17.10;82.50
17827;DHT22;9038;48.208;16.308;2023-06-14T00:39:07;17.00;82.40
17827;DHT22;9038;48.208;16.308;2023-06-14T00:41:10;17.00;82.80
17827;DHT22;9038;48.208;16.308;2023-06-14T00:43:13;17.00;83.00
17827;DHT22;9038;48.208;16.308;2023-06-14T00:45:15;17.00;84.00
17827;DHT22;9038;48.208;16.308;2023-06-14T00:47:17;17.00;84.00
17827;DHT22;9038;48.208;16.308;2023-06-14T00:49:20;16.90;83.90
17827;DHT22;9038;48.208;16.308;2023-06-14T00:51:22;16.90;84.10
17827;DHT22;9038;48.208;16.308;2023-06-14T00:53:24;16.80;85.00
17827;DHT22;9038;48.208;16.308;2023-06-14T00:55:26;16.90;85.30
17827;DHT22;9038;48.208;16.308;2023-06-14T00:57:28;16.90;85.40
17827;DHT22;9038;48.208;16.308;2023-06-14T00:59:32;16.80;85.60
17827;DHT22;9038;48.208;16.308;2023-06-14T01:01:34;16.80;85.70
17827;DHT22;9038;48.208;16.308;2023-06-14T01:03:37;16.80;85.70
17827;DHT22;9038;48.208;16.308;2023-06-14T01:05:40;16.80;85.80
17827;DHT22;9038;48.208;16.308;2023-06-14T01:07:51;16.80;86.70
17827;DHT22;9038;48.208;16.308;2023-06-14T01:10:08;16.80;87.30
17827;DHT22;9038;48.208;16.308;2023-06-14T01:12:17;16.80;87.30
17827;DHT22;9038;48.208;16.308;2023-06-14T01:14:22;16.80;86.80
17827;DHT22;9038;48.208;16.308;2023-06-14T01:16:28;16.80;86.70
17827;DHT22;9038;48.208;16.308;2023-06-14T01:18:32;16.80;87.30
17827;DHT22;9038;48.208;16.308;2023-06-14T01:20:34;16.80;88.20
17827;DHT22;9038;48.208;16.308;2023-06-14T01:22:50;16.90;88.30
17827;DHT22;9038;48.208;16.308;2023-06-14T01:24:52;16.80;88.60
17827;DHT22;9038;48.208;16.308;2023-06-14T01:26:55;16.90;88.70
17827;DHT22;9038;48.208;16.308;2023-06-14T01:28:58;16.80;88.00
17827;DHT22;9038;48.208;16.308;2023-06-14T01:31:01;16.80;88.70
17827;DHT22;9038;48.208;16.308;2023-06-14T01:33:05;16.80;89.60
17827;DHT22;9038;48.208;16.308;2023-06-14T01:35:08;16.80;90.00
17827;DHT22;9038;48.208;16.308;2023-06-14T01:37:10;16.90;89.60
17827;DHT22;9038;48.208;16.308;2023-06-14T01:39:15;16.90;89.30
17827;DHT22;9038;48.208;16.308;2023-06-14T01:41:18;16.90;88.70
17827;DHT22;9038;48.208;16.308;2023-06-14T01:43:23;16.90;89.10
17827;DHT22;9038;48.208;16.308;2023-06-14T01:45:26;16.90;88.80
17827;DHT22;9038;48.208;16.308;2023-06-14T01:47:29;16.90;88.90
17827;DHT22;9038;48.208;16.308;2023-06-14T01:49:33;16.90;88.50
17827;DHT22;9038;48.208;16.308;2023-06-14T01:51:35;16.80;88.60
17827;DHT22;9038;48.208;16.308;2023-06-14T01:53:37;16.80;88.60
17827;DHT22;9038;48.208;16.308;2023-06-14T01:55:40;16.80;88.60
17827;DHT22;9038;48.208;16.308;2023-06-14T01:57:43;16.90;89.70
17827;DHT22;9038;48.208;16.308;2023-06-14T01:59:45;16.90;89.80
17827;DHT22;9038;48.208;16.308;2023-06-14T02:01:48;16.90;89.20
17827;DHT22;9038;48.208;16.308;2023-06-14T02:03:50;16.80;89.10
17827;DHT22;9038;48.208;16.308;2023-06-14T02:05:52;16.80;89.70
17827;DHT22;9038;48.208;16.308;2023-06-14T02:07:54;16.80;90.00
17827;DHT22;9038;48.208;16.308;2023-06-14T02:09:56;16.80;89.60
17827;DHT22;9038;48.208;16.308;2023-06-14T02:12:00;16.70;89.80
17827;DHT22;9038;48.208;16.308;2023-06-14T02:14:01;16.70;90.00
17827;DHT22;9038;48.208;16.308;2023-06-14T02:16:03;16.70;90.00
17827;DHT22;9038;48.208;16.308;2023-06-14T02:18:06;16.70;90.00
17827;DHT22;9038;48.208;16.308;2023-06-14T02:20:09;16.70;90.10
17827;DHT22;9038;48.208;16.308;2023-06-14T02:22:11;16.70;90.00
17827;DHT22;9038;48.208;16.308;2023-06-14T02:24:15;16.70;90.00
17827;DHT22;9038;48.208;16.308;2023-06-14T02:26:17;16.70;90.20
17827;DHT22;9038;48.208;16.308;2023-06-14T02:28:20;16.70;90.40
17827;DHT22;9038;48.208;16.308;2023-06-14T02:30:22;16.70;90.20
17827;DHT22;9038;48.208;16.308;2023-06-14T02:32:24;16.70;90.30
17827;DHT22;9038;48.208;16.308;2023-06-14T02:34:27;16.70;90.70
17827;DHT22;9038;48.208;16.308;2023-06-14T02:36:29;16.70;90.60
17827;DHT22;9038;48.208;16.308;2023-06-14T02:38:31;16.70;91.00
17827;DHT22;9038;48.208;16.308;2023-06-14T02:40:34;16.70;91.10
17827;DHT22;9038;48.208;16.308;2023-06-14T02:42:36;16.70;91.50
17827;DHT22;9038;48.208;16.308;2023-06-14T02:44:39;16.60;91.90
17827;DHT22;9038;48.208;16.308;2023-06-14T02:46:41;16.70;91.20
17827;DHT22;9038;48.208;16.308;2023-06-14T02:48:44;16.70;90.90
17827;DHT22;9038;48.208;16.308;2023-06-14T02:50:46;16.70;91.30
17827;DHT22;9038;48.208;16.308;2023-06-14T02:52:48;16.70;90.90
17827;DHT22;9038;48.208;16.308;2023-06-14T02:54:50;16.70;90.60
17827;DHT22;9038;48.208;16.308;2023-06-14T02:56:52;16.60;90.60
17827;DHT22;9038;48.208;16.308;2023-06-14T02:58:54;16.60;90.60
17827;DHT22;9038;48.208;16.308;2023-06-14T03:00:57;16.60;90.70
17827;DHT22;9038;48.208;16.308;2023-06-14T03:03:04;16.60;90.70
17827;DHT22;9038;48.208;16.308;2023-06-14T03:05:13;16.60;90.60
17827;DHT22;9038;48.208;16.308;2023-06-14T03:07:14;16.50;90.80
17827;DHT22;9038;48.208;16.308;2023-06-14T03:09:20;16.60;90.60
17827;DHT22;9038;48.208;16.308;2023-06-14T03:11:22;16.50;90.60
17827;DHT22;9038;48.208;16.308;2023-06-14T03:13:24;16.50;90.70
17827;DHT22;9038;48.208;16.308;2023-06-14T03:15:27;16.60;90.80
17827;DHT22;9038;48.208;16.308;2023-06-14T03:17:31;16.60;90.60
17827;DHT22;9038;48.208;16.308;2023-06-14T03:19:34;16.60;90.60
17827;DHT22;9038;48.208;16.308;2023-06-14T03:21:36;16.60;90.60
17827;DHT22;9038;48.208;16.308;2023-06-14T03:23:38;16.60;90.50
17827;DHT22;9038;48.208;16.308;2023-06-14T03:25:39;16.60;90.80
17827;DHT22;9038;48.208;16.308;2023-06-14T03:27:42;16.60;90.80
17827;DHT22;9038;48.208;16.308;2023-06-14T03:29:44;16.60;90.60
17827;DHT22;9038;48.208;16.308;2023-06-14T03:31:57;16.60;90.80
17827;DHT22;9038;48.208;16.308;2023-06-14T03:34:01;16.60;90.70
17827;DHT22;9038;48.208;16.308;2023-06-14T03:36:03;16.60;91.40
17827;DHT22;9038;48.208;16.308;2023-06-14T03:38:05;16.70;91.50
17827;DHT22;9038;48.208;16.308;2023-06-14T03:40:07;16.70;91.60
17827;DHT22;9038;48.208;16.308;2023-06-14T03:42:09;16.70;92.10
17827;DHT22;9038;48.208;16.308;2023-06-14T03:44:13;16.70;92.60
17827;DHT22;9038;48.208;16.308;2023-06-14T03:46:15;16.70;92.50
17827;DHT22;9038;48.208;16.308;2023-06-14T03:48:17;16.70;92.80
17827;DHT22;9038;48.208;16.308;2023-06-14T03:50:20;16.70;92.70
17827;DHT22;9038;48.208;16.308;2023-06-14T03:52:22;16.70;93.00
17827;DHT22;9038;48.208;16.308;2023-06-14T03:54:24;16.60;93.30
17827;DHT22;9038;48.208;16.308;2023-06-14T03:56:27;16.70;93.70
17827;DHT22;9038;48.208;16.308;2023-06-14T03:58:29;16.70;93.60
17827;DHT22;9038;48.208;16.308;2023-06-14T04:00:31;16.70;93.70
17827;DHT22;9038;48.208;16.308;2023-06-14T04:02:33;16.70;93.70
17827;DHT22;9038;48.208;16.308;2023-06-14T04:04:37;16.80;93.70
17827;DHT22;9038;48.208;16.308;2023-06-14T04:06:40;16.80;94.10
17827;DHT22;9038;48.208;16.308;2023-06-14T04:08:43;16.90;93.50
17827;DHT22;9038;48.208;16.308;2023-06-14T04:10:46;16.90;92.40
17827;DHT22;9038;48.208;16.308;2023-06-14T04:12:48;16.90;91.20
17827;DHT22;9038;48.208;16.308;2023-06-14T04:14:49;16.90;90.70
17827;DHT22;9038;48.208;16.308;2023-06-14T04:16:51;16.80;90.70
17827;DHT22;9038;48.208;16.308;2023-06-14T04:18:54;16.70;90.60
17827;DHT22;9038;48.208;16.308;2023-06-14T04:20:58;16.70;90.60
17827;DHT22;9038;48.208;16.308;2023-06-14T04:23:12;16.80;90.70
17827;DHT22;9038;48.208;16.308;2023-06-14T04:25:14;16.80;91.20
17827;DHT22;9038;48.208;16.308;2023-06-14T04:27:17;16.90;91.10
17827;DHT22;9038;48.208;16.308;2023-06-14T04:29:22;17.00;91.10
17827;DHT22;9038;48.208;16.308;2023-06-14T04:31:24;17.10;91.20
17827;DHT22;9038;48.208;16.308;2023-06-14T04:33:26;17.20;91.20
17827;DHT22;9038;48.208;16.308;2023-06-14T04:35:28;17.30;91.90
17827;DHT22;9038;48.208;16.308;2023-06-14T04:37:32;17.50;91.60
17827;DHT22;9038;48.208;16.308;2023-06-14T04:39:36;17.60;91.60
17827;DHT22;9038;48.208;16.308;2023-06-14T04:41:38;17.70;91.30
17827;DHT22;9038;48.208;16.308;2023-06-14T04:43:40;17.80;91.10
17827;DHT22;9038;48.208;16.308;2023-06-14T04:45:43;17.80;91.10
17827;DHT22;9038;48.208;16.308;2023-06-14T04:47:46;17.90;90.90
17827;DHT22;9038;48.208;16.308;2023-06-14T04:49:48;18.00;91.20
17827;DHT22;9038;48.208;16.308;2023-06-14T04:51:51;18.00;92.20
17827;DHT22;9038;48.208;16.308;2023-06-14T04:53:57;18.10;93.40
17827;DHT22;9038;48.208;16.308;2023-06-14T04:56:01;18.20;99.90
17827;DHT22;9038;48.208;16.308;2023-06-14T04:58:03;18.30;95.20
17827;DHT22;9038;48.208;16.308;2023-06-14T05:00:08;18.40;94.90
17827;DHT22;9038;48.208;16.308;2023-06-14T05:02:12;18.60;95.50
17827;DHT22;9038;48.208;16.308;2023-06-14T05:04:14;18.60;92.10
17827;DHT22;9038;48.208;16.308;2023-06-14T05:06:16;18.70;91.10
17827;DHT22;9038;48.208;16.308;2023-06-14T05:08:19;18.80;90.70
17827;DHT22;9038;48.208;16.308;2023-06-14T05:10:21;19.00;91.40
17827;DHT22;9038;48.208;16.308;2023-06-14T05:12:24;19.10;90.80
17827;DHT22;9038;48.208;16.308;2023-06-14T05:14:26;19.20;90.90
17827;DHT22;9038;48.208;16.308;2023-06-14T05:16:28;19.30;87.60
17827;DHT22;9038;48.208;16.308;2023-06-14T05:18:30;19.30;87.30
17827;DHT22;9038;48.208;16.308;2023-06-14T05:20:34;19.40;87.90
17827;DHT22;9038;48.208;16.308;2023-06-14T05:22:37;19.50;83.90
17827;DHT22;9038;48.208;16.308;2023-06-14T05:24:39;19.70;87.70
17827;DHT22;9038;48.208;16.308;2023-06-14T05:26:42;19.80;83.00
17827;DHT22;9038;48.208;16.308;2023-06-14T05:28:45;19.90;82.70
17827;DHT22;9038;48.208;16.308;2023-06-14T05:30:47;20.10;82.40
17827;DHT22;9038;48.208;16.308;2023-06-14T05:32:49;20.30;81.40
17827;DHT22;9038;48.208;16.308;2023-06-14T05:34:53;20.50;79.90
17827;DHT22;9038;48.208;16.308;2023-06-14T05:36:55;20.50;81.20
17827;DHT22;9038;48.208;16.308;2023-06-14T05:38:57;20.70;80.40
17827;DHT22;9038;48.208;16.308;2023-06-14T05:41:00;20.70;78.50
17827;DHT22;9038;48.208;16.308;2023-06-14T05:43:02;20.80;78.00
17827;DHT22;9038;48.208;16.308;2023-06-14T05:45:07;20.70;77.70
17827;DHT22;9038;48.208;16.308;2023-06-14T05:47:09;20.70;79.80
17827;DHT22;9038;48.208;16.308;2023-06-14T05:49:10;20.70;77.10
17827;DHT22;9038;48.208;16.308;2023-06-14T05:51:13;20.70;77.60
17827;DHT22;9038;48.208;16.308;2023-06-14T05:53:15;20.50;75.90
17827;DHT22;9038;48.208;16.308;2023-06-14T05:55:17;20.50;76.60
17827;DHT22;9038;48.208;16.308;2023-06-14T05:57:19;20.50;75.60
17827;DHT22;9038;48.208;16.308;2023-06-14T05:59:21;20.40;76.80
17827;DHT22;9038;48.208;16.308;2023-06-14T06:01:24;20.40;77.30
17827;DHT22;9038;48.208;16.308;2023-06-14T06:03:27;20.40;76.60
17827;DHT22;9038;48.208;16.308;2023-06-14T06:05:30;20.50;77.70
17827;DHT22;9038;48.208;16.308;2023-06-14T06:07:32;20.40;75.90
17827;DHT22;9038;48.208;16.308;2023-06-14T06:09:33;20.40;78.70
17827;DHT22;9038;48.208;16.308;2023-06-14T06:11:35;20.20;76.90
17827;DHT22;9038;48.208;16.308;2023-06-14T06:13:38;20.10;80.50
17827;DHT22;9038;48.208;16.308;2023-06-14T06:15:41;20.10;77.90
17827;DHT22;9038;48.208;16.308;2023-06-14T06:17:44;19.90;77.30
17827;DHT22;9038;48.208;16.308;2023-06-14T06:19:46;20.00;79.40
17827;DHT22;9038;48.208;16.308;2023-06-14T06:21:48;19.90;77.60
17827;DHT22;9038;48.208;16.308;2023-06-14T06:23:50;19.90;77.30
17827;DHT22;9038;48.208;16.308;2023-06-14T06:25:52;19.80;77.60
17827;DHT22;9038;48.208;16.308;2023-06-14T06:27:54;19.90;78.10
17827;DHT22;9038;48.208;16.308;2023-06-14T06:29:57;20.00;78.50
17827;DHT22;9038;48.208;16.308;2023-06-14T06:31:59;20.20;79.40
17827;DHT22;9038;48.208;16.308;2023-06-14T06:34:02;20.20;76.00
17827;DHT22;9038;48.208;16.308;2023-06-14T06:36:05;20.20;76.10
17827;DHT22;9038;48.208;16.308;2023-06-14T06:38:07;20.20;75.70
17827;DHT22;9038;48.208;16.308;2023-06-14T06:40:10;20.10;74.90
17827;DHT22;9038;48.208;16.308;2023-06-14T06:42:12;20.10;76.40
17827;DHT22;9038;48.208;16.308;2023-06-14T06:44:14;20.00;75.60
17827;DHT22;9038;48.208;16.308;2023-06-14T06:46:16;20.00;75.30
17827;DHT22;9038;48.208;16.308;2023-06-14T06:48:19;20.00;78.20
17827;DHT22;9038;48.208;16.308;2023-06-14T06:50:23;20.00;77.40
17827;DHT22;9038;48.208;16.308;2023-06-14T06:52:25;20.10;79.80
17827;DHT22;9038;48.208;16.308;2023-06-14T06:54:27;20.20;80.40
17827;DHT22;9038;48.208;16.308;2023-06-14T06:56:29;20.20;77.30
17827;DHT22;9038;48.208;16.308;2023-06-14T06:58:32;20.30;78.80
17827;DHT22;9038;48.208;16.308;2023-06-14T07:00:34;20.20;77.60
17827;DHT22;9038;48.208;16.308;2023-06-14T07:02:36;20.20;76.70
17827;DHT22;9038;48.208;16.308;2023-06-14T07:04:37;20.30;77.40
17827;DHT22;9038;48.208;16.308;2023-06-14T07:06:41;20.30;76.20
17827;DHT22;9038;48.208;16.308;2023-06-14T07:08:43;20.30;78.60
17827;DHT22;9038;48.208;16.308;2023-06-14T07:10:45;20.40;74.50
17827;DHT22;9038;48.208;16.308;2023-06-14T07:12:47;20.40;75.10
17827;DHT22;9038;48.208;16.308;2023-06-14T07:14:49;20.50;74.10
17827;DHT22;9038;48.208;16.308;2023-06-14T07:16:51;20.60;73.30
17827;DHT22;9038;48.208;16.308;2023-06-14T07:18:53;20.60;76.80
17827;DHT22;9038;48.208;16.308;2023-06-14T07:20:55;20.70;72.80
17827;DHT22;9038;48.208;16.308;2023-06-14T07:22:58;20.80;72.80
17827;DHT22;9038;48.208;16.308;2023-06-14T07:25:01;20.90;72.00
17827;DHT22;9038;48.208;16.308;2023-06-14T07:27:03;21.00;73.10
17827;DHT22;9038;48.208;16.308;2023-06-14T07:29:06;21.20;74.20
17827;DHT22;9038;48.208;16.308;2023-06-14T07:31:08;21.30;71.70
17827;DHT22;9038;48.208;16.308;2023-06-14T07:33:10;21.50;69.90
17827;DHT22;9038;48.208;16.308;2023-06-14T07:35:12;21.70;71.40
17827;DHT22;9038;48.208;16.308;2023-06-14T07:37:14;21.80;69.30
17827;DHT22;9038;48.208;16.308;2023-06-14T07:39:18;22.00;69.40
17827;DHT22;9038;48.208;16.308;2023-06-14T07:41:20;22.30;68.20
17827;DHT22;9038;48.208;16.308;2023-06-14T07:43:21;22.50;67.20
17827;DHT22;9038;48.208;16.308;2023-06-14T07:45:23;22.50;66.60
17827;DHT22;9038;48.208;16.308;2023-06-14T07:47:25;22.70;66.20
17827;DHT22;9038;48.208;16.308;2023-06-14T07:49:27;23.00;65.80
17827;DHT22;9038;48.208;16.308;2023-06-14T07:51:29;23.30;66.30
17827;DHT22;9038;48.208;16.308;2023-06-14T07:53:31;23.50;64.60
17827;DHT22;9038;48.208;16.308;2023-06-14T07:55:34;23.90;64.20
17827;DHT22;9038;48.208;16.308;2023-06-14T07:57:37;24.40;63.00
17827;DHT22;9038;48.208;16.308;2023-06-14T08:01:41;25.00;61.80
17827;DHT22;9038;48.208;16.308;2023-06-14T08:03:47;25.30;61.80
17827;DHT22;9038;48.208;16.308;2023-06-14T08:05:49;25.60;59.40
17827;DHT22;9038;48.208;16.308;2023-06-14T08:07:52;25.70;58.50
17827;DHT22;9038;48.208;16.308;2023-06-14T08:09:53;26.20;58.60
17827;DHT22;9038;48.208;16.308;2023-06-14T08:11:57;26.80;58.50
17827;DHT22;9038;48.208;16.308;2023-06-14T08:13:59;27.70;56.90
17827;DHT22;9038;48.208;16.308;2023-06-14T08:16:01;28.50;55.10
17827;DHT22;9038;48.208;16.308;2023-06-14T08:18:05;28.70;53.90
17827;DHT22;9038;48.208;16.308;2023-06-14T08:20:08;28.90;51.40
17827;DHT22;9038;48.208;16.308;2023-06-14T08:22:10;28.90;52.30
17827;DHT22;9038;48.208;16.308;2023-06-14T08:24:12;29.40;50.90
17827;DHT22;9038;48.208;16.308;2023-06-14T08:26:14;29.90;49.90
17827;DHT22;9038;48.208;16.308;2023-06-14T08:28:18;30.60;49.70
17827;DHT22;9038;48.208;16.308;2023-06-14T08:30:20;31.00;48.10
17827;DHT22;9038;48.208;16.308;2023-06-14T08:32:22;31.60;48.10
17827;DHT22;9038;48.208;16.308;2023-06-14T08:34:24;32.40;46.40
17827;DHT22;9038;48.208;16.308;2023-06-14T08:36:26;32.80;44.10
17827;DHT22;9038;48.208;16.308;2023-06-14T08:38:28;32.90;43.40
17827;DHT22;9038;48.208;16.308;2023-06-14T08:40:30;32.30;43.50
17827;DHT22;9038;48.208;16.308;2023-06-14T08:42:33;32.40;43.30
17827;DHT22;9038;48.208;16.308;2023-06-14T08:44:38;32.00;42.50
17827;DHT22;9038;48.208;16.308;2023-06-14T08:46:40;31.90;43.40
17827;DHT22;9038;48.208;16.308;2023-06-14T08:48:43;31.90;43.40
17827;DHT22;9038;48.208;16.308;2023-06-14T08:50:45;32.00;43.20
17827;DHT22;9038;48.208;16.308;2023-06-14T08:52:49;32.30;43.60
17827;DHT22;9038;48.208;16.308;2023-06-14T08:54:53;32.70;43.00
17827;DHT22;9038;48.208;16.308;2023-06-14T08:56:56;33.00;41.70
17827;DHT22;9038;48.208;16.308;2023-06-14T08:58:58;32.20;41.30
17827;DHT22;9038;48.208;16.308;2023-06-14T09:01:06;31.30;43.70
17827;DHT22;9038;48.208;16.308;2023-06-14T09:03:08;31.10;43.80
17827;DHT22;9038;48.208;16.308;2023-06-14T09:05:14;31.90;43.40
17827;DHT22;9038;48.208;16.308;2023-06-14T09:07:18;32.60;41.30
17827;DHT22;9038;48.208;16.308;2023-06-14T09:09:21;33.80;41.60
17827;DHT22;9038;48.208;16.308;2023-06-14T09:11:24;34.70;39.30
17827;DHT22;9038;48.208;16.308;2023-06-14T09:13:27;35.40;40.00
17827;DHT22;9038;48.208;16.308;2023-06-14T09:15:30;36.30;38.40
17827;DHT22;9038;48.208;16.308;2023-06-14T09:17:34;37.10;37.70
17827;DHT22;9038;48.208;16.308;2023-06-14T09:19:36;37.90;35.00
17827;DHT22;9038;48.208;16.308;2023-06-14T09:21:38;38.50;35.40
17827;DHT22;9038;48.208;16.308;2023-06-14T09:23:40;39.40;34.60
17827;DHT22;9038;48.208;16.308;2023-06-14T09:25:42;39.80;32.70
17827;DHT22;9038;48.208;16.308;2023-06-14T09:27:47;39.60;31.20
17827;DHT22;9038;48.208;16.308;2023-06-14T09:29:48;39.00;30.60
17827;DHT22;9038;48.208;16.308;2023-06-14T09:31:51;37.80;31.50
17827;DHT22;9038;48.208;16.308;2023-06-14T09:33:54;37.60;32.90
17827;DHT22;9038;48.208;16.308;2023-06-14T09:35:57;37.90;32.40
17827;DHT22;9038;48.208;16.308;2023-06-14T09:37:59;37.80;32.10
17827;DHT22;9038;48.208;16.308;2023-06-14T09:40:01;38.00;32.30
17827;DHT22;9038;48.208;16.308;2023-06-14T09:42:16;38.50;31.80
17827;DHT22;9038;48.208;16.308;2023-06-14T09:44:20;39.10;30.20
17827;DHT22;9038;48.208;16.308;2023-06-14T09:46:26;39.40;30.60
17827;DHT22;9038;48.208;16.308;2023-06-14T09:48:28;39.50;30.10
17827;DHT22;9038;48.208;16.308;2023-06-14T09:50:32;39.50;29.30
17827;DHT22;9038;48.208;16.308;2023-06-14T09:52:33;39.50;29.60
17827;DHT22;9038;48.208;16.308;2023-06-14T09:54:38;39.50;29.90
17827;DHT22;9038;48.208;16.308;2023-06-14T09:56:51;40.10;29.80
17827;DHT22;9038;48.208;16.308;2023-06-14T09:58:55;40.70;28.80
17827;DHT22;9038;48.208;16.308;2023-06-14T10:00:57;41.20;29.00
17827;DHT22;9038;48.208;16.308;2023-06-14T10:03:06;41.50;28.60
17827;DHT22;9038;48.208;16.308;2023-06-14T10:05:19;41.20;28.40
17827;DHT22;9038;48.208;16.308;2023-06-14T10:07:25;40.90;28.30
17827;DHT22;9038;48.208;16.308;2023-06-14T10:09:28;40.40;28.40
17827;DHT22;9038;48.208;16.308;2023-06-14T10:11:31;40.40;28.50
17827;DHT22;9038;48.208;16.308;2023-06-14T10:13:34;40.50;28.10
17827;DHT22;9038;48.208;16.308;2023-06-14T10:15:43;39.80;28.30
17827;DHT22;9038;48.208;16.308;2023-06-14T10:17:52;38.60;29.10
17827;DHT22;9038;48.208;16.308;2023-06-14T10:20:06;38.40;29.90
17827;DHT22;9038;48.208;16.308;2023-06-14T10:22:16;38.10;29.70
17827;DHT22;9038;48.208;16.308;2023-06-14T10:24:28;37.50;29.80
17827;DHT22;9038;48.208;16.308;2023-06-14T10:26:31;37.20;30.20
17827;DHT22;9038;48.208;16.308;2023-06-14T10:28:37;37.20;30.10
17827;DHT22;9038;48.208;16.308;2023-06-14T10:30:39;37.10;30.30
17827;DHT22;9038;48.208;16.308;2023-06-14T10:33:05;36.70;30.70
17827;DHT22;9038;48.208;16.308;2023-06-14T10:35:08;36.20;31.00
17827;DHT22;9038;48.208;16.308;2023-06-14T10:37:12;34.80;31.70
17827;DHT22;9038;48.208;16.308;2023-06-14T10:39:16;33.60;33.10
17827;DHT22;9038;48.208;16.308;2023-06-14T10:41:20;32.50;34.60
17827;DHT22;9038;48.208;16.308;2023-06-14T10:43:22;31.30;35.90
17827;DHT22;9038;48.208;16.308;2023-06-14T10:45:24;30.60;37.70
17827;DHT22;9038;48.208;16.308;2023-06-14T10:47:27;30.30;37.80
17827;DHT22;9038;48.208;16.308;2023-06-14T10:49:41;30.30;38.20
17827;DHT22;9038;48.208;16.308;2023-06-14T10:51:44;30.10;38.50
17827;DHT22;9038;48.208;16.308;2023-06-14T10:53:47;30.10;38.40
17827;DHT22;9038;48.208;16.308;2023-06-14T10:55:51;30.30;39.10
17827;DHT22;9038;48.208;16.308;2023-06-14T10:57:54;30.10;38.30
17827;DHT22;9038;48.208;16.308;2023-06-14T10:59:58;30.00;38.70
17827;DHT22;9038;48.208;16.308;2023-06-14T11:04:43;32.00;37.90
17827;DHT22;9038;48.208;16.308;2023-06-14T11:06:49;34.30;36.10
17827;DHT22;9038;48.208;16.308;2023-06-14T11:11:32;35.90;31.80
17827;DHT22;9038;48.208;16.308;2023-06-14T11:13:38;34.80;32.70
17827;DHT22;9038;48.208;16.308;2023-06-14T11:15:45;34.10;33.40
17827;DHT22;9038;48.208;16.308;2023-06-14T11:17:50;33.60;33.80
17827;DHT22;9038;48.208;16.308;2023-06-14T11:20:07;33.80;33.90
17827;DHT22;9038;48.208;16.308;2023-06-14T11:22:09;34.40;33.00
17827;DHT22;9038;48.208;16.308;2023-06-14T11:24:12;33.80;33.10
17827;DHT22;9038;48.208;16.308;2023-06-14T11:26:14;34.30;34.30
17827;DHT22;9038;48.208;16.308;2023-06-14T11:28:15;34.60;33.40
17827;DHT22;9038;48.208;16.308;2023-06-14T11:30:19;34.00;32.40
17827;DHT22;9038;48.208;16.308;2023-06-14T11:32:21;33.30;34.90
17827;DHT22;9038;48.208;16.308;2023-06-14T11:34:24;32.40;36.90
17827;DHT22;9038;48.208;16.308;2023-06-14T11:36:26;31.80;37.90
17827;DHT22;9038;48.208;16.308;2023-06-14T11:38:30;31.20;43.70
17827;DHT22;9038;48.208;16.308;2023-06-14T11:40:32;30.90;39.30
17827;DHT22;9038;48.208;16.308;2023-06-14T11:42:34;30.60;39.80
17827;DHT22;9038;48.208;16.308;2023-06-14T11:44:36;30.50;41.00
17827;DHT22;9038;48.208;16.308;2023-06-14T11:46:39;30.10;36.90
17827;DHT22;9038;48.208;16.308;2023-06-14T11:48:42;29.70;37.50
17827;DHT22;9038;48.208;16.308;2023-06-14T11:50:44;29.80;38.40
17827;DHT22;9038;48.208;16.308;2023-06-14T11:52:53;29.80;37.20
17827;DHT22;9038;48.208;16.308;2023-06-14T11:54:56;29.50;37.60
17827;DHT22;9038;48.208;16.308;2023-06-14T11:56:59;29.60;38.50
17827;DHT22;9038;48.208;16.308;2023-06-14T11:59:02;29.40;38.50
17827;DHT22;9038;48.208;16.308;2023-06-14T12:01:06;29.20;38.50
17827;DHT22;9038;48.208;16.308;2023-06-14T12:03:09;29.00;38.80
17827;DHT22;9038;48.208;16.308;2023-06-14T12:05:11;28.70;39.40
17827;DHT22;9038;48.208;16.308;2023-06-14T12:07:14;28.40;39.20
17827;DHT22;9038;48.208;16.308;2023-06-14T12:09:17;28.30;39.90
17827;DHT22;9038;48.208;16.308;2023-06-14T12:11:20;28.10;39.90
17827;DHT22;9038;48.208;16.308;2023-06-14T12:13:22;28.00;40.20
17827;DHT22;9038;48.208;16.308;2023-06-14T12:15:24;28.20;40.40
17827;DHT22;9038;48.208;16.308;2023-06-14T12:17:26;29.00;39.50
17827;DHT22;9038;48.208;16.308;2023-06-14T12:19:32;29.70;38.40
17827;DHT22;9038;48.208;16.308;2023-06-14T12:21:33;29.80;38.20
17827;DHT22;9038;48.208;16.308;2023-06-14T12:23:42;29.70;38.40
17827;DHT22;9038;48.208;16.308;2023-06-14T12:25:43;29.40;38.40
17827;DHT22;9038;48.208;16.308;2023-06-14T12:27:47;29.00;38.80
17827;DHT22;9038;48.208;16.308;2023-06-14T12:29:59;28.30;39.20
17827;DHT22;9038;48.208;16.308;2023-06-14T12:32:01;28.10;40.30
17827;DHT22;9038;48.208;16.308;2023-06-14T12:34:03;28.10;40.10
17827;DHT22;9038;48.208;16.308;2023-06-14T12:36:08;28.10;40.30
17827;DHT22;9038;48.208;16.308;2023-06-14T12:38:10;28.00;40.70
17827;DHT22;9038;48.208;16.308;2023-06-14T12:40:12;28.00;40.90
17827;DHT22;9038;48.208;16.308;2023-06-14T12:42:14;27.60;40.70
17827;DHT22;9038;48.208;16.308;2023-06-14T12:44:16;27.50;41.40
17827;DHT22;9038;48.208;16.308;2023-06-14T12:46:19;27.20;42.00
17827;DHT22;9038;48.208;16.308;2023-06-14T12:48:21;26.90;42.30
17827;DHT22;9038;48.208;16.308;2023-06-14T12:50:23;26.90;42.70
17827;DHT22;9038;48.208;16.308;2023-06-14T12:52:27;27.10;42.90
17827;DHT22;9038;48.208;16.308;2023-06-14T12:54:29;27.90;42.60
17827;DHT22;9038;48.208;16.308;2023-06-14T12:56:31;29.40;40.90
17827;DHT22;9038;48.208;16.308;2023-06-14T12:58:33;30.80;39.00
17827;DHT22;9038;48.208;16.308;2023-06-14T13:00:35;31.70;37.20
17827;DHT22;9038;48.208;16.308;2023-06-14T13:02:37;31.40;36.60
17827;DHT22;9038;48.208;16.308;2023-06-14T13:04:39;30.20;37.50